createdAt,value
2018-02-11T00:02:08.304Z,73.41
2018-02-11T00:04:35.928Z,73.48
2018-02-11T00:07:03.568Z,73.52
2018-02-11T00:09:31.188Z,73.59
2018-02-11T00:11:58.893Z,73.60
2018-02-11T00:14:26.503Z,73.60
2018-02-11T00:16:54.141Z,73.61
2018-02-11T00:19:21.772Z,73.66
2018-02-11T00:21:49.440Z,73.65
2018-02-11T00:24:17.057Z,73.73
2018-02-11T00:26:44.693Z,74.01
2018-02-11T00:29:12.304Z,73.98
2018-02-11T00:31:39.934Z,74.00
2018-02-11T00:34:07.552Z,74.17
2018-02-11T00:36:35.319Z,74.28
2018-02-11T00:39:02.932Z,74.20
2018-02-11T00:41:30.645Z,74.27
2018-02-11T00:43:58.300Z,74.27
2018-02-11T00:46:25.960Z,74.32
2018-02-11T00:48:53.628Z,74.35
2018-02-11T00:51:21.284Z,74.39
2018-02-11T00:53:48.920Z,74.40
2018-02-11T00:56:16.559Z,74.37
2018-02-11T00:58:44.197Z,74.36
2018-02-11T01:01:11.833Z,74.39
2018-02-11T01:03:39.472Z,74.43
2018-02-11T01:06:07.160Z,74.53
2018-02-11T01:08:34.829Z,74.59
2018-02-11T01:11:02.443Z,74.58
2018-02-11T01:13:30.075Z,74.62
2018-02-11T01:15:57.688Z,74.70
2018-02-11T01:18:25.437Z,74.75
2018-02-11T01:20:53.140Z,74.87
2018-02-11T01:23:20.780Z,74.88
2018-02-11T01:28:15.408Z,74.92
2018-02-11T01:35:36.988Z,74.98
2018-02-11T01:38:04.604Z,75.03
2018-02-11T01:40:32.245Z,75.21
2018-02-11T01:42:59.864Z,75.21
2018-02-11T01:45:27.504Z,75.30
2018-02-11T01:47:55.120Z,75.33
2018-02-11T01:50:22.847Z,75.49
2018-02-11T01:52:50.511Z,75.54
2018-02-11T01:55:18.173Z,75.63
2018-02-11T01:57:45.796Z,75.71
2018-02-11T02:00:13.444Z,75.83
2018-02-11T02:02:41.160Z,75.82
2018-02-11T02:05:08.801Z,75.99
2018-02-11T02:07:36.416Z,76.06
2018-02-11T02:10:04.064Z,76.08
2018-02-11T02:12:31.685Z,76.22
2018-02-11T02:14:59.365Z,76.25
2018-02-11T02:17:27.028Z,76.29
2018-02-11T02:19:54.684Z,76.30
2018-02-11T02:22:22.329Z,76.43
2018-02-11T02:24:50.016Z,76.55
2018-02-11T02:27:17.681Z,76.59
2018-02-11T02:29:45.345Z,76.72
2018-02-11T02:32:12.989Z,76.78
2018-02-11T02:34:40.672Z,76.83
2018-02-11T02:37:08.308Z,76.93
2018-02-11T02:39:35.919Z,76.89
2018-02-11T02:42:03.646Z,77.08
2018-02-11T02:44:31.315Z,77.07
2018-02-11T02:46:58.988Z,77.09
2018-02-11T02:49:26.652Z,77.18
2018-02-11T02:51:54.317Z,77.21
2018-02-11T02:54:21.937Z,77.29
2018-02-11T02:56:49.558Z,77.32
2018-02-11T02:59:17.291Z,77.33
2018-02-11T03:01:44.904Z,77.51
2018-02-11T03:04:12.548Z,77.47
2018-02-11T03:06:40.160Z,77.61
2018-02-11T03:09:07.796Z,77.54
2018-02-11T03:11:35.504Z,77.30
2018-02-11T03:14:03.177Z,77.29
2018-02-11T03:16:30.797Z,77.40
2018-02-11T03:18:58.492Z,77.38
2018-02-11T03:21:26.155Z,77.46
2018-02-11T03:23:53.811Z,77.52
2018-02-11T03:26:21.479Z,77.59
2018-02-11T03:28:49.113Z,77.75
2018-02-11T03:31:16.741Z,77.85
2018-02-11T03:33:44.386Z,77.83
2018-02-11T03:36:12.037Z,77.74
2018-02-11T03:38:39.676Z,77.64
2018-02-11T03:41:07.356Z,77.55
2018-02-11T03:43:35.006Z,77.46
2018-02-11T03:46:02.627Z,77.33
2018-02-11T03:48:30.352Z,77.21
2018-02-11T03:50:57.998Z,77.11
2018-02-11T03:53:25.620Z,77.04
2018-02-11T03:55:53.341Z,76.89
2018-02-11T03:58:20.956Z,76.77
2018-02-11T04:00:48.657Z,76.70
2018-02-11T04:03:16.329Z,76.62
2018-02-11T04:05:43.970Z,76.58
2018-02-11T04:08:11.575Z,76.50
2018-02-11T04:10:39.311Z,76.47
2018-02-11T04:13:06.967Z,76.43
2018-02-11T04:15:34.608Z,76.34
2018-02-11T04:18:02.221Z,76.36
2018-02-11T04:20:29.860Z,76.30
2018-02-11T04:22:57.471Z,76.34
2018-02-11T04:25:25.116Z,76.30
2018-02-11T04:27:52.736Z,76.35
2018-02-11T04:30:20.375Z,76.33
2018-02-11T04:32:48.006Z,76.29
2018-02-11T04:35:15.622Z,76.26
2018-02-11T04:37:43.300Z,76.21
2018-02-11T04:40:10.917Z,76.24
2018-02-11T04:42:38.624Z,76.27
2018-02-11T04:45:06.293Z,76.23
2018-02-11T04:47:33.952Z,76.26
2018-02-11T04:50:01.570Z,76.25
2018-02-11T04:52:29.204Z,76.20
2018-02-11T04:54:56.813Z,76.25
2018-02-11T04:57:24.491Z,76.29
2018-02-11T04:59:52.106Z,76.25
2018-02-11T05:02:19.825Z,76.43
2018-02-11T05:04:47.492Z,76.46
2018-02-11T05:07:15.111Z,76.52
2018-02-11T05:09:42.812Z,76.51
2018-02-11T05:12:10.473Z,76.58
2018-02-11T05:14:38.141Z,76.58
2018-02-11T05:17:05.757Z,76.62
2018-02-11T05:19:33.392Z,76.63
2018-02-11T05:22:01.024Z,76.49
2018-02-11T05:24:28.679Z,76.45
2018-02-11T05:26:56.344Z,76.27
2018-02-11T05:29:23.989Z,76.15
2018-02-11T05:31:51.682Z,76.14
2018-02-11T05:34:19.351Z,76.32
2018-02-11T05:36:46.959Z,76.41
2018-02-11T05:39:14.567Z,76.65
2018-02-11T05:41:42.225Z,76.70
2018-02-11T05:44:09.840Z,76.81
2018-02-11T05:46:37.553Z,76.79
2018-02-11T05:49:05.217Z,76.88
2018-02-11T05:51:32.856Z,77.00
2018-02-11T05:54:00.475Z,77.37
2018-02-11T05:56:28.108Z,77.47
2018-02-11T05:58:55.728Z,77.57
2018-02-11T06:01:23.372Z,77.58
2018-02-11T06:03:51.074Z,77.65
2018-02-11T06:06:18.796Z,77.89
2018-02-11T06:08:46.491Z,77.87
2018-02-11T06:11:14.211Z,78.06
2018-02-11T06:13:41.902Z,78.15
2018-02-11T06:16:09.540Z,78.36
2018-02-11T06:18:37.272Z,78.27
2018-02-11T06:21:05.037Z,78.48
2018-02-11T06:23:32.698Z,78.55
2018-02-11T06:26:00.568Z,78.84
2018-02-11T06:28:28.276Z,78.91
2018-02-11T06:30:56.009Z,79.12
2018-02-11T06:33:23.714Z,79.12
2018-02-11T06:35:51.515Z,79.11
2018-02-11T06:38:19.179Z,79.17
2018-02-11T06:40:46.946Z,79.09
2018-02-11T06:43:14.669Z,79.38
2018-02-11T06:45:42.369Z,79.39
2018-02-11T06:48:10.089Z,79.23
2018-02-11T06:50:37.808Z,79.33
2018-02-11T06:53:05.575Z,79.36
2018-02-11T06:55:33.340Z,79.44
2018-02-11T06:58:01.000Z,79.69
2018-02-11T07:00:28.612Z,79.76
2018-02-11T07:02:56.329Z,79.95
2018-02-11T07:05:23.948Z,79.96
2018-02-11T07:07:51.708Z,79.94
2018-02-11T07:10:19.321Z,79.84
2018-02-11T07:12:46.971Z,79.56
2018-02-11T07:15:14.694Z,79.40
2018-02-11T07:17:42.395Z,79.41
2018-02-11T07:20:10.135Z,79.31
2018-02-11T07:22:38.142Z,79.34
2018-02-11T07:25:05.860Z,79.34
2018-02-11T07:27:33.555Z,79.50
2018-02-11T07:30:01.337Z,79.58
2018-02-11T07:32:29.039Z,79.58
2018-02-11T07:34:56.868Z,79.56
2018-02-11T07:37:24.573Z,79.62
2018-02-11T07:39:52.290Z,79.61
2018-02-11T07:42:20.052Z,79.57
2018-02-11T07:44:47.821Z,79.52
2018-02-11T07:47:15.588Z,79.37
2018-02-11T07:49:43.248Z,79.24
2018-02-11T07:52:10.876Z,79.02
2018-02-11T07:54:38.509Z,78.85
2018-02-11T07:57:06.148Z,78.68
2018-02-11T07:59:33.772Z,78.52
2018-02-11T08:02:01.465Z,78.43
2018-02-11T08:04:29.127Z,78.12
2018-02-11T08:06:56.760Z,77.79
2018-02-11T08:09:24.368Z,77.38
2018-02-11T08:11:51.997Z,77.08
2018-02-11T08:14:19.616Z,76.83
2018-02-11T08:16:47.253Z,76.23
2018-02-11T08:19:14.864Z,76.07
2018-02-11T08:21:42.518Z,75.83
2018-02-11T08:24:10.137Z,75.32
2018-02-11T08:26:37.763Z,75.24
2018-02-11T08:29:05.372Z,75.03
2018-02-11T08:31:33.024Z,74.68
2018-02-11T08:34:00.636Z,74.28
2018-02-11T08:36:28.261Z,74.05
2018-02-11T08:38:56.097Z,73.95
2018-02-11T08:41:23.712Z,73.66
2018-02-11T08:43:51.422Z,73.42
2018-02-11T08:46:19.081Z,73.38
2018-02-11T08:48:46.712Z,73.12
2018-02-11T08:51:14.332Z,72.82
2018-02-11T08:53:41.970Z,72.61
2018-02-11T08:56:09.636Z,72.34
2018-02-11T08:58:37.292Z,72.33
2018-02-11T09:01:04.960Z,72.08
2018-02-11T09:03:32.625Z,71.65
2018-02-11T09:06:00.241Z,71.36
2018-02-11T09:08:27.950Z,71.01
2018-02-11T09:10:55.589Z,71.03
2018-02-11T09:13:23.201Z,70.50
2018-02-11T09:15:50.933Z,70.46
2018-02-11T09:18:18.549Z,70.52
2018-02-11T09:20:46.188Z,70.07
2018-02-11T09:23:13.840Z,69.50
2018-02-11T09:25:41.584Z,68.95
2018-02-11T09:28:09.200Z,68.69
2018-02-11T09:30:36.913Z,68.67
2018-02-11T09:33:04.576Z,68.63
2018-02-11T09:35:32.241Z,68.07
2018-02-11T09:37:59.908Z,68.33
2018-02-11T09:40:27.546Z,67.79
2018-02-11T09:42:55.171Z,67.74
2018-02-11T09:45:22.796Z,67.61
2018-02-11T09:47:50.435Z,67.52
2018-02-11T09:50:18.094Z,67.18
2018-02-11T09:52:45.776Z,67.15
2018-02-11T09:55:13.427Z,67.17
2018-02-11T09:57:41.056Z,67.20
2018-02-11T10:00:08.766Z,67.10
2018-02-11T10:02:36.402Z,66.78
2018-02-11T10:05:04.093Z,66.43
2018-02-11T10:07:31.728Z,66.34
2018-02-11T10:09:59.336Z,66.14
2018-02-11T10:12:27.076Z,66.12
2018-02-11T10:14:54.799Z,65.93
2018-02-11T10:17:22.409Z,65.67
2018-02-11T10:19:50.016Z,65.62
2018-02-11T10:22:17.631Z,65.19
2018-02-11T10:24:45.279Z,65.40
2018-02-11T10:27:12.913Z,64.92
2018-02-11T10:29:40.615Z,64.63
2018-02-11T10:32:08.276Z,64.39
2018-02-11T10:34:35.911Z,63.98
2018-02-11T10:37:03.605Z,63.19
2018-02-11T10:39:31.244Z,63.09
2018-02-11T10:41:58.859Z,63.04
2018-02-11T10:44:26.493Z,62.29
2018-02-11T10:46:54.101Z,62.84
2018-02-11T10:49:21.803Z,62.14
2018-02-11T10:51:49.476Z,62.39
2018-02-11T10:54:17.240Z,62.14
2018-02-11T10:56:44.904Z,61.43
2018-02-11T10:59:12.669Z,61.74
2018-02-11T11:01:40.300Z,61.58
2018-02-11T11:04:07.996Z,61.47
2018-02-11T11:06:35.624Z,61.24
2018-02-11T11:09:03.233Z,60.17
2018-02-11T11:11:30.866Z,60.12
2018-02-11T11:13:58.476Z,60.17
2018-02-11T11:16:26.107Z,59.50
2018-02-11T11:18:53.764Z,59.78
2018-02-11T11:21:21.428Z,59.59
2018-02-11T11:23:49.028Z,59.49
2018-02-11T11:26:16.663Z,58.86
2018-02-11T11:28:44.321Z,57.99
2018-02-11T11:31:11.980Z,57.89
2018-02-11T11:33:39.593Z,57.99
2018-02-11T11:36:07.305Z,57.83
2018-02-11T11:38:35.745Z,58.06
2018-02-11T11:41:03.352Z,57.07
2018-02-11T11:43:31.003Z,57.28
2018-02-11T11:45:58.673Z,57.58
2018-02-11T11:48:26.616Z,56.88
2018-02-11T11:50:54.225Z,57.39
2018-02-11T11:53:21.855Z,57.11
2018-02-11T11:55:49.522Z,56.70
2018-02-11T11:58:17.182Z,56.96
2018-02-11T12:00:44.851Z,57.04
2018-02-11T12:03:12.485Z,57.34
2018-02-11T12:05:40.184Z,57.35
2018-02-11T12:08:07.811Z,57.07
2018-02-11T12:10:35.412Z,57.28
2018-02-11T12:13:03.040Z,57.66
2018-02-11T12:15:30.649Z,57.83
2018-02-11T12:17:58.393Z,58.12
2018-02-11T12:20:26.024Z,58.55
2018-02-11T12:22:53.662Z,59.18
2018-02-11T12:25:21.373Z,59.77
2018-02-11T12:27:48.974Z,60.08
2018-02-11T12:30:16.596Z,60.41
2018-02-11T12:32:44.269Z,60.51
2018-02-11T12:35:11.928Z,60.80
2018-02-11T12:37:39.592Z,61.41
2018-02-11T12:40:07.219Z,61.67
2018-02-11T12:42:34.819Z,62.01
2018-02-11T12:45:02.478Z,62.36
2018-02-11T12:47:30.080Z,62.71
2018-02-11T12:49:57.710Z,63.42
2018-02-11T12:52:25.324Z,63.96
2018-02-11T12:54:53.028Z,64.67
2018-02-11T12:57:20.640Z,65.13
2018-02-11T12:59:48.357Z,65.34
2018-02-11T13:02:15.959Z,65.61
2018-02-11T13:04:43.676Z,65.92
2018-02-11T13:07:11.305Z,66.25
2018-02-11T13:09:38.903Z,66.46
2018-02-11T13:12:07.076Z,66.76
2018-02-11T13:14:34.688Z,66.95
2018-02-11T13:17:02.308Z,67.28
2018-02-11T13:19:29.921Z,67.27
2018-02-11T13:21:57.553Z,67.71
2018-02-11T13:24:25.151Z,67.95
2018-02-11T13:26:52.780Z,68.32
2018-02-11T13:29:20.383Z,68.70
2018-02-11T13:31:48.062Z,69.08
2018-02-11T13:34:15.672Z,69.39
2018-02-11T13:36:43.402Z,69.62
2018-02-11T13:39:11.012Z,70.01
2018-02-11T13:41:38.620Z,70.30
2018-02-11T13:44:06.284Z,70.70
2018-02-11T13:46:33.897Z,70.99
2018-02-11T13:49:01.529Z,71.28
2018-02-11T13:51:29.136Z,71.84
2018-02-11T13:53:56.760Z,72.10
2018-02-11T13:56:24.367Z,72.61
2018-02-11T13:58:51.995Z,72.77
2018-02-11T14:01:19.707Z,72.87
2018-02-11T14:03:47.336Z,73.12
2018-02-11T14:06:15.046Z,73.39
2018-02-11T14:08:42.681Z,73.43
2018-02-11T14:11:10.364Z,74.01
2018-02-11T14:13:37.999Z,74.28
2018-02-11T14:16:05.620Z,74.46
2018-02-11T14:18:33.347Z,74.56
2018-02-11T14:21:01.021Z,74.87
2018-02-11T14:23:28.652Z,74.71
2018-02-11T14:25:56.256Z,75.15
2018-02-11T14:28:23.905Z,74.96
2018-02-11T14:30:51.528Z,75.23
2018-02-11T14:33:19.140Z,75.50
2018-02-11T14:35:46.793Z,75.49
2018-02-11T14:38:14.412Z,75.54
2018-02-11T14:40:42.044Z,75.68
2018-02-11T14:43:09.661Z,75.90
2018-02-11T14:45:37.340Z,76.00
2018-02-11T14:48:05.000Z,76.12
2018-02-11T14:50:32.633Z,76.14
2018-02-11T14:53:00.329Z,76.15
2018-02-11T14:55:27.992Z,76.32
2018-02-11T14:57:55.652Z,76.33
2018-02-11T15:00:23.275Z,76.35
2018-02-11T15:02:50.980Z,76.30
2018-02-11T15:05:18.641Z,76.36
2018-02-11T15:07:46.249Z,76.32
2018-02-11T15:10:13.959Z,76.39
2018-02-11T15:12:41.579Z,76.40
2018-02-11T15:15:09.292Z,76.30
2018-02-11T15:17:36.980Z,76.25
2018-02-11T15:20:04.623Z,76.28
2018-02-11T15:22:32.247Z,76.25
2018-02-11T15:24:59.858Z,76.35
2018-02-11T15:27:27.509Z,76.34
2018-02-11T15:29:55.169Z,76.36
2018-02-11T15:32:22.812Z,76.51
2018-02-11T15:34:50.493Z,76.37
2018-02-11T15:37:18.124Z,76.43
2018-02-11T15:39:47.237Z,76.53
2018-02-11T15:42:14.916Z,76.55
2018-02-11T15:44:42.528Z,76.58
2018-02-11T15:47:10.161Z,76.58
2018-02-11T15:49:37.773Z,76.57
2018-02-11T15:52:05.377Z,76.57
2018-02-11T15:54:33.015Z,76.61
2018-02-11T15:57:00.683Z,76.69
2018-02-11T15:59:28.321Z,76.62
2018-02-11T16:01:55.928Z,76.70
2018-02-11T16:04:23.551Z,76.86
2018-02-11T16:06:51.232Z,76.84
2018-02-11T16:09:18.902Z,76.71
2018-02-11T16:11:46.556Z,76.69
2018-02-11T16:14:14.193Z,76.76
2018-02-11T16:16:41.817Z,76.77
2018-02-11T16:19:09.454Z,76.78
2018-02-11T16:21:37.102Z,76.68
2018-02-11T16:24:04.747Z,76.66
2018-02-11T16:26:32.370Z,76.63
2018-02-11T16:28:59.991Z,76.62
2018-02-11T16:31:27.651Z,76.56
2018-02-11T16:33:55.280Z,76.46
2018-02-11T16:36:22.887Z,76.62
2018-02-11T16:38:50.524Z,76.62
2018-02-11T16:41:18.199Z,76.66
2018-02-11T16:43:45.833Z,76.58
2018-02-11T16:46:13.465Z,76.64
2018-02-11T16:48:41.152Z,76.67
2018-02-11T16:51:08.746Z,76.72
2018-02-11T16:53:36.411Z,77.11
2018-02-11T16:56:04.035Z,76.82
2018-02-11T16:58:31.738Z,76.77
2018-02-11T17:00:59.412Z,76.66
2018-02-11T17:03:27.073Z,76.59
2018-02-11T17:05:54.700Z,76.59
2018-02-11T17:08:22.312Z,76.61
2018-02-11T17:10:49.954Z,76.54
2018-02-11T17:13:17.569Z,76.64
2018-02-11T17:15:45.199Z,76.51
2018-02-11T17:18:12.848Z,76.41
2018-02-11T17:20:40.509Z,76.31
2018-02-11T17:23:08.159Z,76.31
2018-02-11T17:25:35.833Z,76.33
2018-02-11T17:28:03.485Z,76.45
2018-02-11T17:30:31.087Z,76.38
2018-02-11T17:32:58.820Z,76.43
2018-02-11T17:35:26.428Z,76.30
2018-02-11T17:37:54.145Z,76.26
2018-02-11T17:40:21.747Z,76.06
2018-02-11T17:42:49.465Z,75.93
2018-02-11T17:45:17.137Z,75.84
2018-02-11T17:47:44.760Z,75.95
2018-02-11T17:50:12.372Z,75.96
2018-02-11T17:52:40.006Z,75.97
2018-02-11T17:55:07.701Z,76.08
2018-02-11T17:57:35.335Z,76.23
2018-02-11T18:00:02.948Z,76.33
2018-02-11T18:02:30.765Z,76.33
2018-02-11T18:04:58.396Z,76.40
2018-02-11T18:07:26.095Z,76.56
2018-02-11T18:09:53.752Z,76.63
2018-02-11T18:12:21.360Z,76.68
2018-02-11T18:14:48.996Z,76.71
2018-02-11T18:17:16.598Z,76.72
2018-02-11T18:19:44.233Z,76.74
2018-02-11T18:22:11.830Z,76.77
2018-02-11T18:24:39.536Z,76.92
2018-02-11T18:27:07.136Z,77.06
2018-02-11T18:29:34.769Z,77.13
2018-02-11T18:32:02.377Z,77.36
2018-02-11T18:34:30.085Z,77.37
2018-02-11T18:36:57.742Z,77.55
2018-02-11T18:39:25.451Z,77.49
2018-02-11T18:41:53.051Z,77.62
2018-02-11T18:44:20.737Z,77.73
2018-02-11T18:46:48.404Z,77.96
2018-02-11T18:49:16.060Z,78.05
2018-02-11T18:51:43.715Z,78.20
2018-02-11T18:54:11.388Z,78.03
2018-02-11T18:56:39.000Z,78.11
2018-02-11T18:59:06.598Z,78.19
2018-02-11T19:01:34.248Z,78.24
2018-02-11T19:04:01.864Z,78.34
2018-02-11T19:06:29.601Z,78.58
2018-02-11T19:08:57.255Z,78.54
2018-02-11T19:11:25.080Z,78.60
2018-02-11T19:13:52.692Z,78.70
2018-02-11T19:16:20.444Z,78.74
2018-02-11T19:18:48.114Z,78.71
2018-02-11T19:21:15.739Z,78.64
2018-02-11T19:23:43.508Z,78.79
2018-02-11T19:26:11.172Z,78.78
2018-02-11T19:28:38.829Z,78.86
2018-02-11T19:31:06.459Z,78.76
2018-02-11T19:33:34.092Z,78.64
2018-02-11T19:36:01.733Z,78.44
2018-02-11T19:38:29.420Z,78.51
2018-02-11T19:40:57.029Z,78.50
2018-02-11T19:43:24.735Z,78.61
2018-02-11T19:45:52.400Z,78.83
2018-02-11T19:48:20.075Z,78.85
2018-02-11T19:50:47.733Z,78.98
2018-02-11T19:53:15.360Z,79.11
2018-02-11T19:55:43.065Z,79.23
2018-02-11T19:58:10.696Z,79.33
2018-02-11T20:00:38.304Z,79.32
2018-02-11T20:03:06.049Z,79.44
2018-02-11T20:05:33.707Z,79.41
2018-02-11T20:08:01.340Z,79.56
2018-02-11T20:10:28.964Z,79.64
2018-02-11T20:12:56.596Z,79.78
2018-02-11T20:15:24.199Z,79.89
2018-02-11T20:17:51.911Z,79.94
2018-02-11T20:20:19.536Z,80.07
2018-02-11T20:22:47.136Z,80.11
2018-02-11T20:25:14.773Z,80.19
2018-02-11T20:27:42.372Z,80.22
2018-02-11T20:30:10.023Z,80.16
2018-02-11T20:32:37.688Z,80.17
2018-02-11T20:35:05.320Z,80.21
2018-02-11T20:37:32.928Z,80.38
2018-02-11T20:40:00.585Z,80.28
2018-02-11T20:42:28.191Z,80.39
2018-02-11T20:44:55.824Z,80.52
2018-02-11T20:47:23.428Z,80.43
2018-02-11T20:49:51.128Z,80.39
2018-02-11T20:52:18.728Z,80.52
2018-02-11T20:54:46.379Z,80.42
2018-02-11T20:57:13.980Z,80.59
2018-02-11T20:59:41.583Z,80.62
2018-02-11T21:02:09.212Z,80.67
2018-02-11T21:04:36.815Z,80.60
2018-02-11T21:07:04.435Z,80.61
2018-02-11T21:09:32.044Z,80.79
2018-02-11T21:11:59.689Z,80.88
2018-02-11T21:14:27.288Z,80.94
2018-02-11T21:16:55.011Z,80.93
2018-02-11T21:19:22.614Z,80.75
2018-02-11T21:21:50.248Z,80.90
2018-02-11T21:24:17.897Z,81.01
2018-02-11T21:26:45.528Z,81.01
2018-02-11T21:29:13.145Z,81.10
2018-02-11T21:31:40.771Z,81.12
2018-02-11T21:34:08.439Z,80.96
2018-02-11T21:36:36.097Z,81.07
2018-02-11T21:39:03.716Z,81.15
2018-02-11T21:41:31.329Z,81.36
2018-02-11T21:43:58.951Z,81.31
2018-02-11T21:46:26.565Z,81.20
2018-02-11T21:48:54.197Z,81.13
2018-02-11T21:51:21.880Z,81.22
2018-02-11T21:53:49.508Z,81.19
2018-02-11T21:56:17.204Z,81.38
2018-02-11T21:58:44.827Z,81.47
2018-02-11T22:01:12.432Z,81.66
2018-02-11T22:03:40.069Z,81.72
2018-02-11T22:06:07.753Z,81.72
2018-02-11T22:08:35.388Z,81.93
2018-02-11T22:11:02.997Z,81.80
2018-02-11T22:13:30.640Z,81.98
2018-02-11T22:15:58.760Z,81.87
2018-02-11T22:18:26.359Z,81.81
2018-02-11T22:20:53.992Z,81.76
2018-02-11T22:23:21.590Z,81.91
2018-02-11T22:25:49.216Z,82.01
2018-02-11T22:28:16.932Z,82.07
2018-02-11T22:30:44.570Z,82.04
2018-02-11T22:33:12.184Z,82.15
2018-02-11T22:35:39.813Z,82.09
2018-02-11T22:38:07.424Z,82.17
2018-02-11T22:40:35.052Z,82.17
2018-02-11T22:43:02.655Z,82.13
2018-02-11T22:45:30.360Z,82.27
2018-02-11T22:47:58.020Z,82.32
2018-02-11T22:50:25.677Z,82.42
2018-02-11T22:52:53.279Z,82.33
2018-02-11T22:55:21.008Z,82.33
2018-02-11T22:57:48.672Z,82.61
2018-02-11T23:00:16.307Z,82.48
2018-02-11T23:02:43.917Z,82.54
2018-02-11T23:05:11.552Z,82.72
2018-02-11T23:07:39.161Z,82.81
2018-02-11T23:10:06.875Z,82.77
2018-02-11T23:12:34.550Z,82.73
2018-02-11T23:15:02.208Z,82.92
2018-02-11T23:17:29.848Z,82.98
2018-02-11T23:19:57.469Z,82.94
2018-02-11T23:22:25.200Z,82.84
2018-02-11T23:24:52.873Z,82.85
2018-02-11T23:27:20.503Z,82.94
2018-02-11T23:29:48.184Z,83.00
2018-02-11T23:32:15.817Z,83.07
2018-02-11T23:34:43.431Z,82.93
2018-02-11T23:37:11.177Z,82.90
2018-02-11T23:39:38.840Z,82.92
2018-02-11T23:42:06.475Z,83.01
2018-02-11T23:44:34.079Z,83.05
2018-02-11T23:47:01.819Z,83.15
2018-02-11T23:49:29.492Z,83.06
2018-02-11T23:51:57.128Z,83.00
2018-02-11T23:54:24.915Z,83.04
2018-02-11T23:56:52.548Z,83.13
2018-02-11T23:59:20.190Z,83.01
